sensor_id;sensor_type;location;lat;lon;timestamp;P1;durP1;ratioP1;P2;durP2;ratioP2
5987;SDS011;3021;51.000;6.980;2023-12-20T00:01:31;37.90;;;18.13;;
5987;SDS011;3021;51.000;6.980;2023-12-20T00:03:56;30.92;;;18.40;;
5987;SDS011;3021;51.000;6.980;2023-12-20T00:06:22;35.63;;;18.58;;
5987;SDS011;3021;51.000;6.980;2023-12-20T00:08:47;32.40;;;18.30;;
5987;SDS011;3021;51.000;6.980;2023-12-20T00:11:12;29.40;;;18.02;;
5987;SDS011;3021;51.000;6.980;2023-12-20T00:13:38;39.33;;;18.73;;
5987;SDS011;3021;51.000;6.980;2023-12-20T00:16:03;33.17;;;18.08;;
5987;SDS011;3021;51.000;6.980;2023-12-20T00:18:29;34.80;;;18.88;;
5987;SDS011;3021;51.000;6.980;2023-12-20T00:20:54;29.77;;;17.25;;
5987;SDS011;3021;51.000;6.980;2023-12-20T00:23:19;42.42;;;19.33;;
5987;SDS011;3021;51.000;6.980;2023-12-20T00:25:45;32.88;;;17.92;;
5987;SDS011;3021;51.000;6.980;2023-12-20T00:28:10;34.97;;;17.67;;
5987;SDS011;3021;51.000;6.980;2023-12-20T00:30:36;37.90;;;16.48;;
5987;SDS011;3021;51.000;6.980;2023-12-20T00:33:01;34.42;;;15.63;;
5987;SDS011;3021;51.000;6.980;2023-12-20T00:35:27;29.92;;;15.00;;
5987;SDS011;3021;51.000;6.980;2023-12-20T00:37:52;23.65;;;11.35;;
5987;SDS011;3021;51.000;6.980;2023-12-20T00:40:18;23.02;;;11.95;;
5987;SDS011;3021;51.000;6.980;2023-12-20T00:42:43;23.60;;;11.63;;
5987;SDS011;3021;51.000;6.980;2023-12-20T00:45:09;27.35;;;12.68;;
5987;SDS011;3021;51.000;6.980;2023-12-20T00:47:34;25.10;;;12.60;;
5987;SDS011;3021;51.000;6.980;2023-12-20T00:49:59;24.95;;;13.43;;
5987;SDS011;3021;51.000;6.980;2023-12-20T00:52:25;24.33;;;12.38;;
5987;SDS011;3021;51.000;6.980;2023-12-20T00:54:50;24.77;;;13.27;;
5987;SDS011;3021;51.000;6.980;2023-12-20T00:57:16;27.15;;;13.48;;
5987;SDS011;3021;51.000;6.980;2023-12-20T00:59:41;27.15;;;13.93;;
5987;SDS011;3021;51.000;6.980;2023-12-20T01:02:06;23.65;;;12.80;;
5987;SDS011;3021;51.000;6.980;2023-12-20T01:04:32;31.00;;;13.13;;
5987;SDS011;3021;51.000;6.980;2023-12-20T01:06:57;22.92;;;13.32;;
5987;SDS011;3021;51.000;6.980;2023-12-20T01:09:23;30.20;;;13.35;;
5987;SDS011;3021;51.000;6.980;2023-12-20T01:11:51;28.02;;;11.38;;
5987;SDS011;3021;51.000;6.980;2023-12-20T01:14:17;28.05;;;10.38;;
5987;SDS011;3021;51.000;6.980;2023-12-20T01:16:42;23.15;;;9.05;;
5987;SDS011;3021;51.000;6.980;2023-12-20T01:19:07;14.38;;;8.07;;
5987;SDS011;3021;51.000;6.980;2023-12-20T01:21:33;18.08;;;8.43;;
5987;SDS011;3021;51.000;6.980;2023-12-20T01:23:58;17.63;;;8.80;;
5987;SDS011;3021;51.000;6.980;2023-12-20T01:26:23;22.60;;;8.70;;
5987;SDS011;3021;51.000;6.980;2023-12-20T01:28:49;17.55;;;8.90;;
5987;SDS011;3021;51.000;6.980;2023-12-20T01:31:14;22.15;;;10.05;;
5987;SDS011;3021;51.000;6.980;2023-12-20T01:33:39;22.10;;;9.57;;
5987;SDS011;3021;51.000;6.980;2023-12-20T01:36:05;23.05;;;10.27;;
5987;SDS011;3021;51.000;6.980;2023-12-20T01:38:30;29.10;;;11.07;;
5987;SDS011;3021;51.000;6.980;2023-12-20T01:40:56;30.67;;;11.57;;
5987;SDS011;3021;51.000;6.980;2023-12-20T01:43:21;28.15;;;12.10;;
5987;SDS011;3021;51.000;6.980;2023-12-20T01:45:46;41.22;;;14.73;;
5987;SDS011;3021;51.000;6.980;2023-12-20T01:48:12;39.67;;;13.90;;
5987;SDS011;3021;51.000;6.980;2023-12-20T01:50:39;34.90;;;15.45;;
5987;SDS011;3021;51.000;6.980;2023-12-20T01:53:06;32.90;;;15.10;;
5987;SDS011;3021;51.000;6.980;2023-12-20T01:55:34;35.67;;;16.50;;
5987;SDS011;3021;51.000;6.980;2023-12-20T01:58:01;34.33;;;15.20;;
5987;SDS011;3021;51.000;6.980;2023-12-20T02:00:27;40.08;;;16.15;;
5987;SDS011;3021;51.000;6.980;2023-12-20T02:02:55;35.30;;;14.95;;
5987;SDS011;3021;51.000;6.980;2023-12-20T02:05:20;29.67;;;15.10;;
5987;SDS011;3021;51.000;6.980;2023-12-20T02:07:47;33.95;;;14.93;;
5987;SDS011;3021;51.000;6.980;2023-12-20T02:10:13;31.38;;;14.57;;
5987;SDS011;3021;51.000;6.980;2023-12-20T02:12:39;30.88;;;14.02;;
5987;SDS011;3021;51.000;6.980;2023-12-20T02:15:05;32.88;;;14.23;;
5987;SDS011;3021;51.000;6.980;2023-12-20T02:17:31;35.08;;;14.20;;
5987;SDS011;3021;51.000;6.980;2023-12-20T02:19:57;26.23;;;13.00;;
5987;SDS011;3021;51.000;6.980;2023-12-20T02:22:22;38.20;;;13.07;;
5987;SDS011;3021;51.000;6.980;2023-12-20T02:24:47;34.10;;;14.27;;
5987;SDS011;3021;51.000;6.980;2023-12-20T02:27:13;26.85;;;13.05;;
5987;SDS011;3021;51.000;6.980;2023-12-20T02:29:40;33.95;;;12.70;;
5987;SDS011;3021;51.000;6.980;2023-12-20T02:32:05;28.95;;;12.15;;
5987;SDS011;3021;51.000;6.980;2023-12-20T02:34:31;25.67;;;12.80;;
5987;SDS011;3021;51.000;6.980;2023-12-20T02:36:56;27.92;;;12.25;;
5987;SDS011;3021;51.000;6.980;2023-12-20T02:39:21;26.73;;;10.68;;
5987;SDS011;3021;51.000;6.980;2023-12-20T02:41:47;26.77;;;11.57;;
5987;SDS011;3021;51.000;6.980;2023-12-20T02:44:13;35.20;;;11.75;;
5987;SDS011;3021;51.000;6.980;2023-12-20T02:46:39;32.25;;;10.70;;
5987;SDS011;3021;51.000;6.980;2023-12-20T02:49:04;28.00;;;11.02;;
5987;SDS011;3021;51.000;6.980;2023-12-20T02:51:29;30.30;;;10.38;;
5987;SDS011;3021;51.000;6.980;2023-12-20T02:53:55;29.15;;;9.82;;
5987;SDS011;3021;51.000;6.980;2023-12-20T02:56:20;26.27;;;8.88;;
5987;SDS011;3021;51.000;6.980;2023-12-20T02:58:46;32.95;;;8.40;;
5987;SDS011;3021;51.000;6.980;2023-12-20T03:01:11;31.60;;;8.32;;
5987;SDS011;3021;51.000;6.980;2023-12-20T03:03:36;34.83;;;8.20;;
5987;SDS011;3021;51.000;6.980;2023-12-20T03:06:02;27.25;;;7.65;;
5987;SDS011;3021;51.000;6.980;2023-12-20T03:08:27;29.10;;;7.55;;
5987;SDS011;3021;51.000;6.980;2023-12-20T03:10:53;24.33;;;6.68;;
5987;SDS011;3021;51.000;6.980;2023-12-20T03:13:18;29.55;;;6.70;;
5987;SDS011;3021;51.000;6.980;2023-12-20T03:15:44;24.77;;;5.95;;
5987;SDS011;3021;51.000;6.980;2023-12-20T03:18:10;27.77;;;5.65;;
5987;SDS011;3021;51.000;6.980;2023-12-20T03:20:36;27.80;;;5.60;;
5987;SDS011;3021;51.000;6.980;2023-12-20T03:23:01;23.20;;;5.05;;
5987;SDS011;3021;51.000;6.980;2023-12-20T03:25:26;20.20;;;5.30;;
5987;SDS011;3021;51.000;6.980;2023-12-20T03:27:52;25.73;;;4.90;;
5987;SDS011;3021;51.000;6.980;2023-12-20T03:30:18;21.80;;;4.68;;
5987;SDS011;3021;51.000;6.980;2023-12-20T03:32:44;33.20;;;5.40;;
5987;SDS011;3021;51.000;6.980;2023-12-20T03:35:10;27.50;;;5.10;;
5987;SDS011;3021;51.000;6.980;2023-12-20T03:37:35;25.55;;;5.90;;
5987;SDS011;3021;51.000;6.980;2023-12-20T03:40:01;24.65;;;5.82;;
5987;SDS011;3021;51.000;6.980;2023-12-20T03:42:26;22.08;;;5.03;;
5987;SDS011;3021;51.000;6.980;2023-12-20T03:44:52;32.67;;;6.03;;
5987;SDS011;3021;51.000;6.980;2023-12-20T03:47:17;34.88;;;6.45;;
5987;SDS011;3021;51.000;6.980;2023-12-20T03:49:42;25.58;;;5.63;;
5987;SDS011;3021;51.000;6.980;2023-12-20T03:52:08;29.48;;;6.00;;
5987;SDS011;3021;51.000;6.980;2023-12-20T03:54:34;27.67;;;5.90;;
5987;SDS011;3021;51.000;6.980;2023-12-20T03:57:00;39.55;;;6.70;;
5987;SDS011;3021;51.000;6.980;2023-12-20T03:59:25;32.70;;;5.47;;
5987;SDS011;3021;51.000;6.980;2023-12-20T04:01:51;27.98;;;6.50;;
5987;SDS011;3021;51.000;6.980;2023-12-20T04:04:16;26.60;;;5.93;;
5987;SDS011;3021;51.000;6.980;2023-12-20T04:06:41;24.67;;;5.78;;
5987;SDS011;3021;51.000;6.980;2023-12-20T04:09:07;35.42;;;6.10;;
5987;SDS011;3021;51.000;6.980;2023-12-20T04:11:34;37.40;;;6.63;;
5987;SDS011;3021;51.000;6.980;2023-12-20T04:13:59;31.05;;;6.38;;
5987;SDS011;3021;51.000;6.980;2023-12-20T04:16:25;25.00;;;6.40;;
5987;SDS011;3021;51.000;6.980;2023-12-20T04:18:51;37.00;;;7.50;;
5987;SDS011;3021;51.000;6.980;2023-12-20T04:21:16;27.48;;;6.43;;
5987;SDS011;3021;51.000;6.980;2023-12-20T04:23:42;30.13;;;7.38;;
5987;SDS011;3021;51.000;6.980;2023-12-20T04:26:07;29.48;;;6.82;;
5987;SDS011;3021;51.000;6.980;2023-12-20T04:28:32;29.10;;;6.32;;
5987;SDS011;3021;51.000;6.980;2023-12-20T04:30:57;33.10;;;6.43;;
5987;SDS011;3021;51.000;6.980;2023-12-20T04:33:23;32.05;;;7.40;;
5987;SDS011;3021;51.000;6.980;2023-12-20T04:35:48;21.20;;;7.05;;
5987;SDS011;3021;51.000;6.980;2023-12-20T04:38:14;31.48;;;6.78;;
5987;SDS011;3021;51.000;6.980;2023-12-20T04:40:39;27.77;;;6.30;;
5987;SDS011;3021;51.000;6.980;2023-12-20T04:43:06;35.05;;;7.22;;
5987;SDS011;3021;51.000;6.980;2023-12-20T04:45:31;22.92;;;6.32;;
5987;SDS011;3021;51.000;6.980;2023-12-20T04:47:57;22.77;;;7.00;;
5987;SDS011;3021;51.000;6.980;2023-12-20T04:50:22;28.15;;;6.47;;
5987;SDS011;3021;51.000;6.980;2023-12-20T04:52:48;24.05;;;7.13;;
5987;SDS011;3021;51.000;6.980;2023-12-20T04:55:13;39.05;;;8.00;;
5987;SDS011;3021;51.000;6.980;2023-12-20T04:57:39;29.02;;;7.78;;
5987;SDS011;3021;51.000;6.980;2023-12-20T05:00:04;33.38;;;7.53;;
5987;SDS011;3021;51.000;6.980;2023-12-20T05:02:30;30.95;;;7.55;;
5987;SDS011;3021;51.000;6.980;2023-12-20T05:04:55;24.92;;;7.65;;
5987;SDS011;3021;51.000;6.980;2023-12-20T05:07:21;25.52;;;6.78;;
5987;SDS011;3021;51.000;6.980;2023-12-20T05:09:46;31.90;;;7.90;;
5987;SDS011;3021;51.000;6.980;2023-12-20T05:12:12;30.60;;;7.55;;
5987;SDS011;3021;51.000;6.980;2023-12-20T05:14:37;27.75;;;7.57;;
5987;SDS011;3021;51.000;6.980;2023-12-20T05:17:03;22.90;;;6.40;;
5987;SDS011;3021;51.000;6.980;2023-12-20T05:19:28;20.02;;;6.68;;
5987;SDS011;3021;51.000;6.980;2023-12-20T05:21:54;24.50;;;6.95;;
5987;SDS011;3021;51.000;6.980;2023-12-20T05:24:19;26.98;;;6.90;;
5987;SDS011;3021;51.000;6.980;2023-12-20T05:26:44;32.88;;;6.40;;
5987;SDS011;3021;51.000;6.980;2023-12-20T05:29:10;20.80;;;6.35;;
5987;SDS011;3021;51.000;6.980;2023-12-20T05:31:35;26.27;;;7.15;;
5987;SDS011;3021;51.000;6.980;2023-12-20T05:34:00;34.20;;;7.75;;
5987;SDS011;3021;51.000;6.980;2023-12-20T05:36:26;32.97;;;7.50;;
5987;SDS011;3021;51.000;6.980;2023-12-20T05:38:51;38.95;;;7.50;;
5987;SDS011;3021;51.000;6.980;2023-12-20T05:41:16;27.67;;;7.40;;
5987;SDS011;3021;51.000;6.980;2023-12-20T05:43:42;30.25;;;7.60;;
5987;SDS011;3021;51.000;6.980;2023-12-20T05:46:09;33.75;;;7.57;;
5987;SDS011;3021;51.000;6.980;2023-12-20T05:48:36;31.92;;;8.60;;
5987;SDS011;3021;51.000;6.980;2023-12-20T05:51:01;34.47;;;8.13;;
5987;SDS011;3021;51.000;6.980;2023-12-20T05:53:27;25.92;;;7.10;;
5987;SDS011;3021;51.000;6.980;2023-12-20T05:55:52;33.42;;;7.88;;
5987;SDS011;3021;51.000;6.980;2023-12-20T05:58:17;30.98;;;7.85;;
5987;SDS011;3021;51.000;6.980;2023-12-20T06:00:43;39.08;;;8.35;;
5987;SDS011;3021;51.000;6.980;2023-12-20T06:03:08;29.45;;;7.57;;
5987;SDS011;3021;51.000;6.980;2023-12-20T06:05:33;33.22;;;7.10;;
5987;SDS011;3021;51.000;6.980;2023-12-20T06:07:59;30.30;;;6.78;;
5987;SDS011;3021;51.000;6.980;2023-12-20T06:10:28;28.30;;;7.85;;
5987;SDS011;3021;51.000;6.980;2023-12-20T06:12:53;35.97;;;7.38;;
5987;SDS011;3021;51.000;6.980;2023-12-20T06:15:19;29.23;;;6.78;;
5987;SDS011;3021;51.000;6.980;2023-12-20T06:17:44;25.95;;;6.32;;
5987;SDS011;3021;51.000;6.980;2023-12-20T06:20:11;31.45;;;7.72;;
5987;SDS011;3021;51.000;6.980;2023-12-20T06:22:37;33.85;;;7.53;;
5987;SDS011;3021;51.000;6.980;2023-12-20T06:25:03;32.95;;;7.40;;
5987;SDS011;3021;51.000;6.980;2023-12-20T06:27:30;42.10;;;8.30;;
5987;SDS011;3021;51.000;6.980;2023-12-20T06:29:57;29.63;;;7.07;;
5987;SDS011;3021;51.000;6.980;2023-12-20T06:32:24;32.97;;;7.70;;
5987;SDS011;3021;51.000;6.980;2023-12-20T06:34:49;33.25;;;7.18;;
5987;SDS011;3021;51.000;6.980;2023-12-20T06:37:15;32.38;;;7.00;;
5987;SDS011;3021;51.000;6.980;2023-12-20T06:39:40;31.15;;;6.80;;
5987;SDS011;3021;51.000;6.980;2023-12-20T06:42:06;39.70;;;7.40;;
5987;SDS011;3021;51.000;6.980;2023-12-20T06:44:31;29.15;;;6.72;;
5987;SDS011;3021;51.000;6.980;2023-12-20T06:46:57;32.50;;;6.60;;
5987;SDS011;3021;51.000;6.980;2023-12-20T06:49:22;26.10;;;6.78;;
5987;SDS011;3021;51.000;6.980;2023-12-20T06:52:33;33.10;;;6.38;;
5987;SDS011;3021;51.000;6.980;2023-12-20T06:55:02;29.23;;;5.53;;
5987;SDS011;3021;51.000;6.980;2023-12-20T06:57:28;27.40;;;6.32;;
5987;SDS011;3021;51.000;6.980;2023-12-20T06:59:54;27.50;;;6.20;;
5987;SDS011;3021;51.000;6.980;2023-12-20T07:02:19;24.55;;;6.15;;
5987;SDS011;3021;51.000;6.980;2023-12-20T07:04:46;28.55;;;5.53;;
5987;SDS011;3021;51.000;6.980;2023-12-20T07:07:11;26.30;;;5.57;;
5987;SDS011;3021;51.000;6.980;2023-12-20T07:09:36;22.20;;;5.43;;
5987;SDS011;3021;51.000;6.980;2023-12-20T07:12:03;36.95;;;6.88;;
5987;SDS011;3021;51.000;6.980;2023-12-20T07:14:29;28.38;;;5.80;;
5987;SDS011;3021;51.000;6.980;2023-12-20T07:16:54;28.33;;;5.80;;
5987;SDS011;3021;51.000;6.980;2023-12-20T07:19:19;29.17;;;5.70;;
5987;SDS011;3021;51.000;6.980;2023-12-20T07:21:45;29.10;;;5.60;;
5987;SDS011;3021;51.000;6.980;2023-12-20T07:24:10;28.20;;;5.82;;
5987;SDS011;3021;51.000;6.980;2023-12-20T07:26:35;31.60;;;6.50;;
5987;SDS011;3021;51.000;6.980;2023-12-20T07:29:03;33.45;;;6.55;;
5987;SDS011;3021;51.000;6.980;2023-12-20T07:31:29;25.05;;;5.95;;
5987;SDS011;3021;51.000;6.980;2023-12-20T07:33:54;22.33;;;6.15;;
5987;SDS011;3021;51.000;6.980;2023-12-20T07:36:19;29.77;;;6.72;;
5987;SDS011;3021;51.000;6.980;2023-12-20T07:38:46;27.08;;;6.60;;
5987;SDS011;3021;51.000;6.980;2023-12-20T07:41:11;27.38;;;5.75;;
5987;SDS011;3021;51.000;6.980;2023-12-20T07:43:37;26.52;;;6.40;;
5987;SDS011;3021;51.000;6.980;2023-12-20T07:46:06;29.25;;;6.47;;
5987;SDS011;3021;51.000;6.980;2023-12-20T07:48:31;25.77;;;6.85;;
5987;SDS011;3021;51.000;6.980;2023-12-20T07:50:57;21.02;;;6.30;;
5987;SDS011;3021;51.000;6.980;2023-12-20T07:53:22;22.27;;;7.15;;
5987;SDS011;3021;51.000;6.980;2023-12-20T07:55:47;29.98;;;7.57;;
5987;SDS011;3021;51.000;6.980;2023-12-20T07:58:13;26.27;;;7.90;;
5987;SDS011;3021;51.000;6.980;2023-12-20T08:00:38;31.65;;;7.35;;
5987;SDS011;3021;51.000;6.980;2023-12-20T08:03:04;27.88;;;7.53;;
5987;SDS011;3021;51.000;6.980;2023-12-20T08:05:29;33.25;;;7.25;;
5987;SDS011;3021;51.000;6.980;2023-12-20T08:07:54;21.30;;;6.55;;
5987;SDS011;3021;51.000;6.980;2023-12-20T08:10:20;29.33;;;7.50;;
5987;SDS011;3021;51.000;6.980;2023-12-20T08:12:45;23.08;;;6.78;;
5987;SDS011;3021;51.000;6.980;2023-12-20T08:15:10;23.30;;;7.07;;
5987;SDS011;3021;51.000;6.980;2023-12-20T08:17:36;29.38;;;7.50;;
5987;SDS011;3021;51.000;6.980;2023-12-20T08:20:01;23.20;;;6.72;;
5987;SDS011;3021;51.000;6.980;2023-12-20T08:22:27;30.33;;;6.68;;
5987;SDS011;3021;51.000;6.980;2023-12-20T08:24:52;27.75;;;6.75;;
5987;SDS011;3021;51.000;6.980;2023-12-20T08:27:17;32.03;;;6.95;;
5987;SDS011;3021;51.000;6.980;2023-12-20T08:29:46;20.00;;;6.32;;
5987;SDS011;3021;51.000;6.980;2023-12-20T08:32:11;26.92;;;6.35;;
5987;SDS011;3021;51.000;6.980;2023-12-20T08:34:36;30.25;;;6.18;;
5987;SDS011;3021;51.000;6.980;2023-12-20T08:37:02;20.48;;;5.82;;
5987;SDS011;3021;51.000;6.980;2023-12-20T08:39:27;25.65;;;6.90;;
5987;SDS011;3021;51.000;6.980;2023-12-20T08:41:54;27.13;;;5.82;;
5987;SDS011;3021;51.000;6.980;2023-12-20T08:44:20;22.20;;;6.10;;
5987;SDS011;3021;51.000;6.980;2023-12-20T08:46:47;17.95;;;5.75;;
5987;SDS011;3021;51.000;6.980;2023-12-20T08:49:13;20.95;;;6.18;;
5987;SDS011;3021;51.000;6.980;2023-12-20T08:51:38;17.88;;;6.25;;
5987;SDS011;3021;51.000;6.980;2023-12-20T08:54:05;23.55;;;6.45;;
5987;SDS011;3021;51.000;6.980;2023-12-20T08:56:33;18.75;;;6.05;;
5987;SDS011;3021;51.000;6.980;2023-12-20T08:58:58;28.27;;;5.47;;
5987;SDS011;3021;51.000;6.980;2023-12-20T09:01:24;25.70;;;5.68;;
5987;SDS011;3021;51.000;6.980;2023-12-20T09:03:49;19.80;;;5.97;;
5987;SDS011;3021;51.000;6.980;2023-12-20T09:06:14;20.65;;;5.25;;
5987;SDS011;3021;51.000;6.980;2023-12-20T09:08:40;20.48;;;5.05;;
5987;SDS011;3021;51.000;6.980;2023-12-20T09:11:06;22.40;;;5.00;;
5987;SDS011;3021;51.000;6.980;2023-12-20T09:13:32;19.13;;;5.43;;
5987;SDS011;3021;51.000;6.980;2023-12-20T09:15:57;19.38;;;5.88;;
5987;SDS011;3021;51.000;6.980;2023-12-20T09:18:23;24.33;;;5.97;;
5987;SDS011;3021;51.000;6.980;2023-12-20T09:20:48;24.83;;;6.68;;
5987;SDS011;3021;51.000;6.980;2023-12-20T09:23:14;31.20;;;5.63;;
5987;SDS011;3021;51.000;6.980;2023-12-20T09:25:39;18.13;;;5.30;;
5987;SDS011;3021;51.000;6.980;2023-12-20T09:28:05;27.77;;;5.50;;
5987;SDS011;3021;51.000;6.980;2023-12-20T09:30:30;22.90;;;5.68;;
5987;SDS011;3021;51.000;6.980;2023-12-20T09:32:56;31.02;;;5.78;;
5987;SDS011;3021;51.000;6.980;2023-12-20T09:35:22;22.42;;;6.10;;
5987;SDS011;3021;51.000;6.980;2023-12-20T09:37:47;19.27;;;4.97;;
5987;SDS011;3021;51.000;6.980;2023-12-20T09:40:13;17.60;;;4.93;;
5987;SDS011;3021;51.000;6.980;2023-12-20T09:45:14;20.58;;;5.00;;
5987;SDS011;3021;51.000;6.980;2023-12-20T09:47:42;14.05;;;3.53;;
5987;SDS011;3021;51.000;6.980;2023-12-20T09:50:08;14.95;;;4.20;;
5987;SDS011;3021;51.000;6.980;2023-12-20T09:52:34;17.52;;;4.10;;
5987;SDS011;3021;51.000;6.980;2023-12-20T09:55:01;16.60;;;3.90;;
5987;SDS011;3021;51.000;6.980;2023-12-20T09:57:30;17.02;;;4.72;;
5987;SDS011;3021;51.000;6.980;2023-12-20T09:59:56;17.98;;;4.60;;
5987;SDS011;3021;51.000;6.980;2023-12-20T10:02:22;18.85;;;4.45;;
5987;SDS011;3021;51.000;6.980;2023-12-20T10:04:51;27.05;;;4.47;;
5987;SDS011;3021;51.000;6.980;2023-12-20T10:07:16;22.08;;;4.38;;
5987;SDS011;3021;51.000;6.980;2023-12-20T10:09:42;17.35;;;3.65;;
5987;SDS011;3021;51.000;6.980;2023-12-20T10:12:07;17.58;;;3.78;;
5987;SDS011;3021;51.000;6.980;2023-12-20T10:14:33;15.07;;;3.47;;
5987;SDS011;3021;51.000;6.980;2023-12-20T10:17:02;18.00;;;4.32;;
5987;SDS011;3021;51.000;6.980;2023-12-20T10:19:28;19.92;;;4.40;;
5987;SDS011;3021;51.000;6.980;2023-12-20T10:21:54;17.77;;;4.07;;
5987;SDS011;3021;51.000;6.980;2023-12-20T10:24:19;14.30;;;3.92;;
5987;SDS011;3021;51.000;6.980;2023-12-20T10:26:45;17.73;;;3.70;;
5987;SDS011;3021;51.000;6.980;2023-12-20T10:29:10;16.70;;;3.60;;
5987;SDS011;3021;51.000;6.980;2023-12-20T10:31:36;14.05;;;4.72;;
5987;SDS011;3021;51.000;6.980;2023-12-20T10:34:03;23.30;;;4.97;;
5987;SDS011;3021;51.000;6.980;2023-12-20T10:36:29;20.48;;;3.80;;
5987;SDS011;3021;51.000;6.980;2023-12-20T10:38:56;18.85;;;4.50;;
5987;SDS011;3021;51.000;6.980;2023-12-20T10:41:30;17.48;;;3.92;;
5987;SDS011;3021;51.000;6.980;2023-12-20T10:44:01;18.87;;;4.13;;
5987;SDS011;3021;51.000;6.980;2023-12-20T10:46:28;21.75;;;4.40;;
5987;SDS011;3021;51.000;6.980;2023-12-20T10:48:55;21.08;;;4.20;;
5987;SDS011;3021;51.000;6.980;2023-12-20T10:51:22;14.60;;;3.42;;
5987;SDS011;3021;51.000;6.980;2023-12-20T10:53:49;18.30;;;4.00;;
5987;SDS011;3021;51.000;6.980;2023-12-20T10:56:16;14.02;;;3.35;;
5987;SDS011;3021;51.000;6.980;2023-12-20T10:58:43;16.20;;;4.03;;
5987;SDS011;3021;51.000;6.980;2023-12-20T11:01:09;14.15;;;3.60;;
5987;SDS011;3021;51.000;6.980;2023-12-20T11:03:38;15.32;;;4.15;;
5987;SDS011;3021;51.000;6.980;2023-12-20T11:06:15;15.57;;;3.83;;
5987;SDS011;3021;51.000;6.980;2023-12-20T11:09:54;13.75;;;3.35;;
5987;SDS011;3021;51.000;6.980;2023-12-20T11:17:18;14.70;;;3.58;;
5987;SDS011;3021;51.000;6.980;2023-12-20T11:22:22;19.23;;;3.85;;
5987;SDS011;3021;51.000;6.980;2023-12-20T11:24:51;13.43;;;4.03;;
5987;SDS011;3021;51.000;6.980;2023-12-20T11:27:18;14.23;;;3.30;;
5987;SDS011;3021;51.000;6.980;2023-12-20T11:29:51;22.92;;;3.95;;
5987;SDS011;3021;51.000;6.980;2023-12-20T11:37:21;16.73;;;3.30;;
5987;SDS011;3021;51.000;6.980;2023-12-20T11:39:54;16.92;;;3.70;;
5987;SDS011;3021;51.000;6.980;2023-12-20T11:42:21;11.88;;;3.00;;
5987;SDS011;3021;51.000;6.980;2023-12-20T11:44:46;17.38;;;3.78;;
5987;SDS011;3021;51.000;6.980;2023-12-20T11:47:12;19.13;;;3.97;;
5987;SDS011;3021;51.000;6.980;2023-12-20T11:49:39;17.80;;;3.42;;
5987;SDS011;3021;51.000;6.980;2023-12-20T11:52:05;16.88;;;3.67;;
5987;SDS011;3021;51.000;6.980;2023-12-20T11:54:30;19.15;;;3.70;;
5987;SDS011;3021;51.000;6.980;2023-12-20T11:56:56;15.05;;;3.65;;
5987;SDS011;3021;51.000;6.980;2023-12-20T11:59:21;19.88;;;3.67;;
5987;SDS011;3021;51.000;6.980;2023-12-20T12:01:50;18.38;;;3.88;;
5987;SDS011;3021;51.000;6.980;2023-12-20T12:04:16;15.73;;;3.60;;
5987;SDS011;3021;51.000;6.980;2023-12-20T12:06:42;20.38;;;4.55;;
5987;SDS011;3021;51.000;6.980;2023-12-20T12:09:08;14.80;;;3.65;;
5987;SDS011;3021;51.000;6.980;2023-12-20T12:11:34;13.63;;;3.45;;
5987;SDS011;3021;51.000;6.980;2023-12-20T12:13:59;15.45;;;3.85;;
5987;SDS011;3021;51.000;6.980;2023-12-20T12:16:26;17.10;;;3.47;;
5987;SDS011;3021;51.000;6.980;2023-12-20T12:18:55;21.33;;;4.35;;
5987;SDS011;3021;51.000;6.980;2023-12-20T12:21:23;18.23;;;4.38;;
5987;SDS011;3021;51.000;6.980;2023-12-20T12:23:49;17.10;;;4.47;;
5987;SDS011;3021;51.000;6.980;2023-12-20T12:26:15;16.73;;;3.90;;
5987;SDS011;3021;51.000;6.980;2023-12-20T12:28:40;16.17;;;4.13;;
5987;SDS011;3021;51.000;6.980;2023-12-20T12:31:07;13.20;;;4.10;;
5987;SDS011;3021;51.000;6.980;2023-12-20T12:33:33;12.93;;;4.28;;
5987;SDS011;3021;51.000;6.980;2023-12-20T12:36:00;13.10;;;4.10;;
5987;SDS011;3021;51.000;6.980;2023-12-20T12:38:26;20.92;;;4.40;;
5987;SDS011;3021;51.000;6.980;2023-12-20T12:40:52;18.33;;;4.15;;
5987;SDS011;3021;51.000;6.980;2023-12-20T12:43:18;18.17;;;4.50;;
5987;SDS011;3021;51.000;6.980;2023-12-20T12:45:44;16.33;;;5.22;;
5987;SDS011;3021;51.000;6.980;2023-12-20T12:48:09;16.20;;;4.10;;
5987;SDS011;3021;51.000;6.980;2023-12-20T12:50:35;16.42;;;4.47;;
5987;SDS011;3021;51.000;6.980;2023-12-20T12:53:00;17.60;;;4.20;;
5987;SDS011;3021;51.000;6.980;2023-12-20T12:55:27;15.63;;;4.70;;
5987;SDS011;3021;51.000;6.980;2023-12-20T12:57:53;16.02;;;4.60;;
5987;SDS011;3021;51.000;6.980;2023-12-20T13:00:18;17.95;;;5.13;;
5987;SDS011;3021;51.000;6.980;2023-12-20T13:02:44;20.90;;;4.85;;
5987;SDS011;3021;51.000;6.980;2023-12-20T13:05:10;17.95;;;4.00;;
5987;SDS011;3021;51.000;6.980;2023-12-20T13:07:35;16.23;;;4.50;;
5987;SDS011;3021;51.000;6.980;2023-12-20T13:10:02;21.15;;;4.70;;
5987;SDS011;3021;51.000;6.980;2023-12-20T13:12:28;17.48;;;4.15;;
5987;SDS011;3021;51.000;6.980;2023-12-20T13:14:54;22.42;;;4.80;;
5987;SDS011;3021;51.000;6.980;2023-12-20T13:17:19;17.13;;;5.00;;
5987;SDS011;3021;51.000;6.980;2023-12-20T13:19:45;16.75;;;4.03;;
5987;SDS011;3021;51.000;6.980;2023-12-20T13:22:10;19.77;;;4.53;;
5987;SDS011;3021;51.000;6.980;2023-12-20T13:24:36;17.42;;;4.25;;
5987;SDS011;3021;51.000;6.980;2023-12-20T13:27:01;19.95;;;5.32;;
5987;SDS011;3021;51.000;6.980;2023-12-20T13:29:26;14.27;;;4.35;;
5987;SDS011;3021;51.000;6.980;2023-12-20T13:31:52;14.40;;;4.55;;
5987;SDS011;3021;51.000;6.980;2023-12-20T13:34:18;17.60;;;4.63;;
5987;SDS011;3021;51.000;6.980;2023-12-20T13:36:43;16.20;;;4.47;;
5987;SDS011;3021;51.000;6.980;2023-12-20T13:39:12;19.92;;;4.38;;
5987;SDS011;3021;51.000;6.980;2023-12-20T13:41:39;12.23;;;4.65;;
5987;SDS011;3021;51.000;6.980;2023-12-20T13:44:04;16.77;;;4.97;;
5987;SDS011;3021;51.000;6.980;2023-12-20T13:46:30;23.98;;;5.18;;
5987;SDS011;3021;51.000;6.980;2023-12-20T13:48:56;18.40;;;4.60;;
5987;SDS011;3021;51.000;6.980;2023-12-20T13:51:21;13.73;;;4.30;;
5987;SDS011;3021;51.000;6.980;2023-12-20T13:53:47;14.48;;;4.45;;
5987;SDS011;3021;51.000;6.980;2023-12-20T13:56:13;17.95;;;4.40;;
5987;SDS011;3021;51.000;6.980;2023-12-20T13:58:39;13.18;;;4.53;;
5987;SDS011;3021;51.000;6.980;2023-12-20T14:01:06;10.02;;;3.63;;
5987;SDS011;3021;51.000;6.980;2023-12-20T14:03:32;16.00;;;4.72;;
5987;SDS011;3021;51.000;6.980;2023-12-20T14:05:57;12.85;;;4.68;;
5987;SDS011;3021;51.000;6.980;2023-12-20T14:08:22;12.60;;;3.70;;
5987;SDS011;3021;51.000;6.980;2023-12-20T14:10:49;12.35;;;3.25;;
5987;SDS011;3021;51.000;6.980;2023-12-20T14:13:15;19.42;;;4.28;;
5987;SDS011;3021;51.000;6.980;2023-12-20T14:15:40;13.52;;;3.50;;
5987;SDS011;3021;51.000;6.980;2023-12-20T14:18:06;11.98;;;3.45;;
5987;SDS011;3021;51.000;6.980;2023-12-20T14:20:32;15.32;;;3.88;;
5987;SDS011;3021;51.000;6.980;2023-12-20T14:23:02;14.60;;;4.28;;
5987;SDS011;3021;51.000;6.980;2023-12-20T14:25:28;13.25;;;3.63;;
5987;SDS011;3021;51.000;6.980;2023-12-20T14:27:53;13.90;;;4.45;;
5987;SDS011;3021;51.000;6.980;2023-12-20T14:30:19;14.80;;;4.22;;
5987;SDS011;3021;51.000;6.980;2023-12-20T14:32:44;9.50;;;3.47;;
5987;SDS011;3021;51.000;6.980;2023-12-20T14:35:09;10.27;;;3.65;;
5987;SDS011;3021;51.000;6.980;2023-12-20T14:37:35;10.38;;;4.10;;
5987;SDS011;3021;51.000;6.980;2023-12-20T14:40:04;13.88;;;4.47;;
5987;SDS011;3021;51.000;6.980;2023-12-20T14:42:30;18.25;;;4.05;;
5987;SDS011;3021;51.000;6.980;2023-12-20T14:44:57;16.65;;;5.00;;
5987;SDS011;3021;51.000;6.980;2023-12-20T14:47:22;16.05;;;4.07;;
5987;SDS011;3021;51.000;6.980;2023-12-20T14:49:50;13.10;;;4.18;;
5987;SDS011;3021;51.000;6.980;2023-12-20T14:52:17;13.23;;;4.20;;
5987;SDS011;3021;51.000;6.980;2023-12-20T14:54:43;14.38;;;4.03;;
5987;SDS011;3021;51.000;6.980;2023-12-20T14:57:09;13.50;;;3.70;;
5987;SDS011;3021;51.000;6.980;2023-12-20T14:59:34;16.63;;;3.63;;
5987;SDS011;3021;51.000;6.980;2023-12-20T15:02:00;17.40;;;4.07;;
5987;SDS011;3021;51.000;6.980;2023-12-20T15:04:27;18.33;;;4.20;;
5987;SDS011;3021;51.000;6.980;2023-12-20T15:06:54;12.85;;;3.78;;